Time;durP1;ratioP1;P1;durP2;ratioP2;P2;SDS_P1;SDS_P2;PMS_P1;PMS_P2;Temp;Humidity;BMP_temperature;BMP_pressure;BME280_temperature;BME280_humidity;BME280_pressure;Samples;Min_cycle;Max_cycle;Signal;HPM_P1;HPM_P2
2024/02/24 00:00:01;;;;;;;5.47;2.33;;;4.30;99.90;;;;;;5048805;28;20079;-75
2024/02/24 00:02:26;;;;;;;3.28;1.85;;;4.40;99.90;;;;;;5041566;28;20742;-76
2024/02/24 00:04:52;;;;;;;4.65;2.53;;;4.30;99.90;;;;;;5046846;28;20579;-75
2024/02/24 00:07:17;;;;;;;12.93;2.08;;;4.30;99.90;;;;;;5044858;28;20041;-76
2024/02/24 00:09:43;;;;;;;4.60;1.77;;;4.30;99.90;;;;;;5046064;28;20072;-75
2024/02/24 00:12:09;;;;;;;2.90;1.55;;;4.30;99.90;;;;;;5044805;28;20136;-74
2024/02/24 00:14:34;;;;;;;2.78;1.40;;;4.30;99.90;;;;;;5037705;28;20397;-74
2024/02/24 00:17:00;;;;;;;3.55;1.70;;;4.30;99.90;;;;;;5036783;28;20099;-75
2024/02/24 00:19:25;;;;;;;3.70;1.30;;;4.30;99.90;;;;;;5043280;28;20509;-75
2024/02/24 00:21:51;;;;;;;3.70;1.40;;;4.30;99.90;;;;;;5045256;28;20448;-74
2024/02/24 00:24:16;;;;;;;5.97;2.08;;;4.30;99.90;;;;;;5042581;28;20406;-75
2024/02/24 00:26:42;;;;;;;2.45;1.08;;;4.30;99.90;;;;;;5044006;28;20041;-75
2024/02/24 00:29:07;;;;;;;2.25;0.82;;;4.30;99.90;;;;;;5040730;28;20061;-75
2024/02/24 00:31:33;;;;;;;3.17;1.10;;;4.30;99.90;;;;;;5042083;28;20041;-72
2024/02/24 00:33:58;;;;;;;1.63;0.95;;;4.30;99.90;;;;;;5038659;28;20045;-75
2024/02/24 00:36:24;;;;;;;1.67;0.70;;;4.30;99.90;;;;;;5042828;28;20087;-74
2024/02/24 00:38:50;;;;;;;1.10;0.52;;;4.30;99.90;;;;;;5044590;28;20063;-74
2024/02/24 00:41:15;;;;;;;2.78;0.80;;;4.40;99.90;;;;;;5038798;28;20057;-75
2024/02/24 00:43:41;;;;;;;1.85;0.43;;;4.30;99.90;;;;;;5045612;28;20033;-75
2024/02/24 00:46:07;;;;;;;2.78;0.60;;;4.30;99.90;;;;;;5046104;28;20633;-76
2024/02/24 00:48:33;;;;;;;1.70;0.60;;;4.30;99.90;;;;;;5041530;28;20025;-73
2024/02/24 00:50:58;;;;;;;2.00;0.50;;;4.20;99.90;;;;;;5047031;28;20098;-75
2024/02/24 00:53:27;;;;;;;1.27;0.45;;;4.20;99.90;;;;;;5038109;28;21598;-74
2024/02/24 00:55:52;;;;;;;1.73;1.17;;;4.20;99.90;;;;;;5045639;28;20055;-75
2024/02/24 00:58:18;;;;;;;3.38;0.70;;;4.20;99.90;;;;;;5044054;28;20029;-75
2024/02/24 01:00:44;;;;;;;1.75;0.60;;;4.20;99.90;;;;;;5046322;28;20033;-75
2024/02/24 01:03:09;;;;;;;1.88;0.82;;;4.20;99.90;;;;;;5045412;28;20033;-75
2024/02/24 01:05:35;;;;;;;2.38;0.52;;;4.20;99.90;;;;;;5049182;28;20057;-76
2024/02/24 01:08:00;;;;;;;2.17;0.77;;;4.20;99.90;;;;;;5040236;28;20067;-75
2024/02/24 01:10:26;;;;;;;2.13;0.65;;;4.20;99.90;;;;;;5047407;28;20044;-75
2024/02/24 01:12:52;;;;;;;2.67;0.32;;;4.10;99.90;;;;;;5049192;28;20039;-75
2024/02/24 01:15:18;;;;;;;1.95;0.77;;;4.10;99.90;;;;;;5046944;28;20529;-76
2024/02/24 01:17:43;;;;;;;1.63;0.50;;;4.20;99.90;;;;;;5047977;28;20045;-75
2024/02/24 01:20:09;;;;;;;2.95;0.57;;;4.20;99.90;;;;;;5042678;28;20029;-75
2024/02/24 01:22:35;;;;;;;4.20;0.60;;;4.20;99.90;;;;;;5045777;28;20029;-75
2024/02/24 01:25:00;;;;;;;1.95;0.70;;;4.20;99.90;;;;;;5046399;28;20040;-75
2024/02/24 01:27:26;;;;;;;1.58;0.93;;;4.20;99.90;;;;;;5045124;28;20032;-75
2024/02/24 01:29:51;;;;;;;3.03;0.77;;;4.20;99.90;;;;;;5043370;28;20915;-76
2024/02/24 01:32:19;;;;;;;3.03;0.70;;;4.20;99.90;;;;;;5048495;28;20033;-75
2024/02/24 01:34:45;;;;;;;1.63;0.80;;;4.20;99.90;;;;;;5044346;28;20417;-74
2024/02/24 01:37:11;;;;;;;4.57;1.00;;;4.20;99.90;;;;;;5041857;28;20520;-74
2024/02/24 01:39:36;;;;;;;2.38;0.65;;;4.20;99.90;;;;;;5042379;28;20033;-75
2024/02/24 01:42:02;;;;;;;2.90;1.27;;;4.20;99.90;;;;;;5064145;28;20535;-76
2024/02/24 01:44:28;;;;;;;3.65;0.93;;;4.20;99.90;;;;;;5061585;28;20068;-75
2024/02/24 01:46:53;;;;;;;3.97;0.73;;;4.20;99.90;;;;;;5065413;28;20043;-76
2024/02/24 01:49:19;;;;;;;2.50;0.70;;;4.20;99.90;;;;;;5068078;28;20056;-75
2024/02/24 01:51:45;;;;;;;1.67;0.60;;;4.20;99.90;;;;;;5061723;28;20086;-75
2024/02/24 01:54:11;;;;;;;4.28;0.85;;;4.10;99.90;;;;;;5063872;28;20082;-75
2024/02/24 01:56:38;;;;;;;1.73;0.90;;;4.10;99.90;;;;;;5045892;28;20489;-75
2024/02/24 01:59:04;;;;;;;1.50;0.40;;;4.10;99.90;;;;;;5059176;28;20033;-75
2024/02/24 02:01:31;;;;;;;4.20;0.60;;;4.10;99.90;;;;;;5049913;28;20078;-74
2024/02/24 02:03:57;;;;;;;4.07;1.13;;;4.10;99.90;;;;;;5061329;28;20416;-76
2024/02/24 02:06:24;;;;;;;1.90;0.60;;;4.00;99.90;;;;;;5066146;28;20073;-75
2024/02/24 02:08:50;;;;;;;4.63;1.08;;;4.00;99.90;;;;;;5049973;28;20074;-74
2024/02/24 02:11:15;;;;;;;3.10;0.80;;;4.00;99.90;;;;;;5055918;28;20420;-76
2024/02/24 02:13:41;;;;;;;2.28;0.70;;;4.00;99.90;;;;;;5064206;28;20025;-76
2024/02/24 02:16:07;;;;;;;2.25;0.80;;;4.00;99.90;;;;;;5064554;28;20016;-75
2024/02/24 02:18:33;;;;;;;2.15;1.10;;;4.00;99.90;;;;;;5064399;28;20025;-76
2024/02/24 02:20:59;;;;;;;3.20;0.80;;;4.00;99.90;;;;;;5068644;28;20024;-77
2024/02/24 02:23:24;;;;;;;3.80;0.63;;;4.00;99.90;;;;;;5060506;28;20782;-75
2024/02/24 02:25:50;;;;;;;5.15;0.88;;;4.00;99.90;;;;;;5045225;28;20024;-75
2024/02/24 02:28:16;;;;;;;1.88;0.77;;;3.90;99.90;;;;;;5045658;28;20035;-75
2024/02/24 02:30:41;;;;;;;8.30;1.42;;;3.90;99.90;;;;;;5067505;28;20032;-75
2024/02/24 02:33:08;;;;;;;2.78;0.77;;;3.90;99.90;;;;;;5064728;28;20024;-75
2024/02/24 02:35:35;;;;;;;4.38;0.75;;;4.00;99.90;;;;;;5066571;28;20032;-75
2024/02/24 02:38:01;;;;;;;5.18;0.80;;;4.10;99.90;;;;;;5045328;28;20029;-75
2024/02/24 02:40:26;;;;;;;4.88;0.98;;;4.10;99.90;;;;;;5049689;28;20036;-76
2024/02/24 02:42:52;;;;;;;1.55;0.60;;;4.10;99.90;;;;;;5067320;28;20028;-76
2024/02/24 02:45:17;;;;;;;3.03;0.82;;;4.10;99.90;;;;;;5066680;28;20155;-74
2024/02/24 02:47:43;;;;;;;1.40;0.77;;;4.10;99.90;;;;;;5047113;28;20497;-75
2024/02/24 02:50:09;;;;;;;3.10;0.82;;;4.10;99.90;;;;;;5053971;28;20581;-76
2024/02/24 02:52:35;;;;;;;1.50;0.75;;;4.10;99.90;;;;;;5063416;28;20099;-76
2024/02/24 02:55:01;;;;;;;1.85;0.82;;;4.10;99.90;;;;;;5064076;28;20035;-75
2024/02/24 02:57:26;;;;;;;2.95;1.50;;;4.10;99.90;;;;;;5058028;28;20044;-76
2024/02/24 02:59:52;;;;;;;2.30;1.02;;;4.10;99.90;;;;;;5046965;28;20047;-76
2024/02/24 03:02:17;;;;;;;3.03;0.70;;;4.10;99.90;;;;;;5048747;28;20033;-76
2024/02/24 03:04:43;;;;;;;1.33;0.60;;;4.10;99.90;;;;;;5066932;28;20109;-75
2024/02/24 03:07:09;;;;;;;1.23;0.68;;;4.00;99.90;;;;;;5048858;28;20447;-76
2024/02/24 03:09:34;;;;;;;1.30;0.60;;;4.00;99.90;;;;;;5039777;28;20036;-75
2024/02/24 03:12:00;;;;;;;3.35;1.10;;;4.00;99.90;;;;;;5064443;28;20060;-75
2024/02/24 03:14:25;;;;;;;7.35;1.10;;;4.10;99.90;;;;;;5061855;28;20040;-75
2024/02/24 03:16:53;;;;;;;5.97;1.35;;;4.10;99.90;;;;;;5065360;28;20056;-75
2024/02/24 03:19:18;;;;;;;3.38;0.77;;;4.10;99.90;;;;;;5064297;28;20030;-75
2024/02/24 03:21:44;;;;;;;4.97;1.15;;;4.10;99.90;;;;;;5044568;28;20051;-76
2024/02/24 03:24:09;;;;;;;3.17;1.40;;;4.10;99.90;;;;;;5054275;28;20044;-76
2024/02/24 03:26:35;;;;;;;3.55;0.90;;;4.10;99.90;;;;;;5065302;28;20040;-76
2024/02/24 03:29:00;;;;;;;1.70;0.70;;;4.10;99.90;;;;;;5044908;28;20032;-75
2024/02/24 03:31:26;;;;;;;3.00;0.98;;;4.00;99.90;;;;;;5064672;28;20056;-75
2024/02/24 03:33:54;;;;;;;4.20;1.20;;;4.00;99.90;;;;;;5049048;28;20039;-77
2024/02/24 03:36:20;;;;;;;1.67;0.90;;;4.00;99.90;;;;;;5062797;28;20037;-76
2024/02/24 03:38:46;;;;;;;2.67;1.02;;;4.00;99.90;;;;;;5045851;28;20035;-75
2024/02/24 03:41:11;;;;;;;3.38;0.73;;;3.90;99.90;;;;;;5060423;28;20408;-75
2024/02/24 03:43:38;;;;;;;3.60;1.00;;;3.90;99.90;;;;;;5047874;28;20086;-75
2024/02/24 03:46:05;;;;;;;3.10;0.80;;;3.90;99.90;;;;;;5047722;28;20043;-75
2024/02/24 03:48:31;;;;;;;5.55;0.88;;;3.90;99.90;;;;;;5056926;28;20490;-75
2024/02/24 03:50:57;;;;;;;2.67;0.98;;;3.90;99.90;;;;;;5048532;28;20083;-77
2024/02/24 03:53:22;;;;;;;3.05;1.20;;;3.80;99.90;;;;;;5076098;28;20036;-76
2024/02/24 03:55:49;;;;;;;6.60;1.38;;;3.80;99.90;;;;;;5081175;28;20032;-76
2024/02/24 03:58:15;;;;;;;2.85;0.90;;;3.80;99.90;;;;;;5058845;28;20041;-76
2024/02/24 04:00:40;;;;;;;5.82;1.23;;;3.80;99.90;;;;;;5062222;28;20032;-74
2024/02/24 04:03:06;;;;;;;3.92;1.27;;;3.80;99.90;;;;;;5062768;28;20498;-76
2024/02/24 04:05:32;;;;;;;1.70;0.82;;;3.80;99.90;;;;;;5059360;28;20036;-74
2024/02/24 04:07:57;;;;;;;1.83;0.82;;;3.80;99.90;;;;;;5061059;28;20037;-75
2024/02/24 04:10:23;;;;;;;2.00;1.35;;;3.80;99.90;;;;;;5063044;28;20033;-76
2024/02/24 04:12:48;;;;;;;2.80;1.10;;;3.70;99.90;;;;;;5061304;28;20106;-74
2024/02/24 04:15:19;;;;;;;2.03;1.10;;;3.70;99.90;;;;;;5061499;28;20037;-75
2024/02/24 04:17:45;;;;;;;;;;;3.70;99.90;;;;;;5043822;28;20032;-75
2024/02/24 04:20:11;;;;;;;3.38;1.30;;;3.70;99.90;;;;;;5061523;28;20308;-74
2024/02/24 04:22:37;;;;;;;4.18;1.20;;;3.70;99.90;;;;;;5054611;28;20040;-75
2024/02/24 04:25:03;;;;;;;2.92;1.27;;;3.70;99.90;;;;;;5060594;28;20036;-75
2024/02/24 04:27:29;;;;;;;2.53;1.00;;;3.60;99.90;;;;;;5041253;28;20143;-75
2024/02/24 04:29:54;;;;;;;3.85;1.42;;;3.60;99.90;;;;;;5058075;28;20040;-75
2024/02/24 04:32:20;;;;;;;2.33;1.15;;;3.70;99.90;;;;;;5062267;28;20093;-75
2024/02/24 04:34:46;;;;;;;4.45;1.23;;;3.70;99.90;;;;;;5050295;28;20032;-75
2024/02/24 04:37:11;;;;;;;5.18;1.33;;;3.60;99.90;;;;;;5067706;28;20502;-76
2024/02/24 04:39:37;;;;;;;4.32;1.63;;;3.60;99.90;;;;;;5065586;28;20120;-75
2024/02/24 04:42:03;;;;;;;5.13;1.38;;;3.60;99.90;;;;;;5067162;28;20041;-75
2024/02/24 04:44:28;;;;;;;3.95;1.75;;;3.60;99.90;;;;;;5068059;28;20047;-76
2024/02/24 04:46:54;;;;;;;2.53;1.35;;;3.60;99.90;;;;;;5049199;28;20036;-76
2024/02/24 04:49:19;;;;;;;6.60;1.70;;;3.60;99.90;;;;;;5060586;28;20413;-76
2024/02/24 04:51:45;;;;;;;3.75;1.20;;;3.70;99.90;;;;;;5045252;28;20044;-76
2024/02/24 04:54:10;;;;;;;2.92;1.40;;;3.70;99.90;;;;;;5066352;28;20037;-75
2024/02/24 04:56:36;;;;;;;1.98;1.20;;;3.70;99.90;;;;;;5046498;28;20029;-76
2024/02/24 04:59:01;;;;;;;4.25;1.95;;;3.80;99.90;;;;;;5058362;28;20379;-76
2024/02/24 05:01:27;;;;;;;2.60;1.23;;;3.80;99.90;;;;;;5044835;28;20029;-75
2024/02/24 05:03:52;;;;;;;6.20;1.52;;;3.90;99.90;;;;;;5063803;28;20446;-75
2024/02/24 05:06:18;;;;;;;2.22;1.02;;;3.90;99.90;;;;;;5069147;28;20029;-76
2024/02/24 05:08:43;;;;;;;2.72;1.30;;;3.90;99.90;;;;;;5051199;28;20458;-75
2024/02/24 05:11:10;;;;;;;2.90;1.77;;;3.90;99.90;;;;;;5069686;28;20078;-78
2024/02/24 05:13:35;;;;;;;3.25;1.55;;;3.90;99.90;;;;;;5031315;28;20090;-75
2024/02/24 05:16:05;;;;;;;4.28;1.65;;;3.90;99.90;;;;;;5031239;28;20060;-76
2024/02/24 05:18:31;;;;;;;5.88;1.92;;;3.80;99.90;;;;;;5039314;28;20116;-76
2024/02/24 05:20:59;;;;;;;3.45;1.35;;;3.90;99.90;;;;;;5044201;28;20025;-75
2024/02/24 05:23:24;;;;;;;4.80;1.65;;;3.90;99.90;;;;;;5044928;28;20033;-76
2024/02/24 05:25:50;;;;;;;3.22;1.63;;;3.90;99.90;;;;;;5064983;28;20033;-76
2024/02/24 05:28:15;;;;;;;3.20;1.90;;;3.90;99.90;;;;;;5050996;28;20032;-75
2024/02/24 05:30:41;;;;;;;4.60;1.50;;;3.90;99.90;;;;;;5044124;28;20036;-74
2024/02/24 05:33:07;;;;;;;6.30;2.10;;;3.90;99.90;;;;;;5051125;28;20032;-74
2024/02/24 05:35:33;;;;;;;8.77;1.75;;;3.90;99.90;;;;;;5042731;28;20024;-75
2024/02/24 05:37:58;;;;;;;4.43;2.05;;;4.00;99.90;;;;;;5059372;28;20401;-75
2024/02/24 05:40:24;;;;;;;7.25;3.08;;;4.00;99.90;;;;;;5060756;28;20043;-76
2024/02/24 05:42:49;;;;;;;5.68;2.45;;;4.00;99.90;;;;;;5057199;28;20071;-76
2024/02/24 05:45:16;;;;;;;6.60;2.30;;;4.00;99.90;;;;;;5064361;28;20037;-74
2024/02/24 05:47:41;;;;;;;3.33;1.60;;;4.00;99.90;;;;;;5042902;28;20039;-75
2024/02/24 05:50:07;;;;;;;4.25;2.30;;;4.00;99.90;;;;;;5065130;28;20048;-75
2024/02/24 05:52:33;;;;;;;7.70;2.95;;;4.00;99.90;;;;;;5062849;28;20028;-75
2024/02/24 05:54:58;;;;;;;6.35;2.63;;;4.00;99.90;;;;;;5055780;28;20029;-75
2024/02/24 05:57:24;;;;;;;6.20;2.78;;;4.00;99.90;;;;;;5050138;28;20058;-76
2024/02/24 05:59:50;;;;;;;7.00;2.80;;;4.10;99.90;;;;;;5066990;28;20033;-76
2024/02/24 06:02:16;;;;;;;4.18;2.35;;;4.10;99.90;;;;;;5050125;28;20128;-75
2024/02/24 06:04:42;;;;;;;10.32;3.00;;;4.10;99.90;;;;;;5067798;28;20047;-76
2024/02/24 06:07:08;;;;;;;11.52;3.28;;;4.10;99.90;;;;;;5063654;28;20036;-77
2024/02/24 06:09:33;;;;;;;4.72;2.35;;;4.10;99.90;;;;;;5067086;28;20037;-75
2024/02/24 06:11:59;;;;;;;7.80;2.20;;;4.20;99.90;;;;;;5067391;28;20127;-76
2024/02/24 06:14:24;;;;;;;5.45;2.33;;;4.20;99.90;;;;;;5064506;28;20036;-75
2024/02/24 06:16:50;;;;;;;9.82;2.20;;;4.10;99.90;;;;;;5064473;28;20029;-76
2024/02/24 06:19:16;;;;;;;6.90;3.03;;;4.20;99.90;;;;;;5058684;28;20501;-76
2024/02/24 06:21:41;;;;;;;4.97;2.60;;;4.20;99.90;;;;;;5048728;28;20079;-74
2024/02/24 06:24:07;;;;;;;7.40;2.25;;;4.20;99.90;;;;;;5062347;28;20028;-76
2024/02/24 06:26:32;;;;;;;5.00;2.60;;;4.20;99.90;;;;;;5066229;28;20041;-76
2024/02/24 06:28:58;;;;;;;8.07;3.08;;;4.10;99.90;;;;;;5065996;28;20067;-76
2024/02/24 06:31:24;;;;;;;7.82;3.20;;;4.10;99.90;;;;;;5060072;28;20040;-75
2024/02/24 06:33:49;;;;;;;8.05;3.30;;;4.10;99.90;;;;;;5060437;28;20086;-76
2024/02/24 06:36:15;;;;;;;6.75;3.35;;;4.10;99.90;;;;;;5064965;28;20041;-74
2024/02/24 06:38:40;;;;;;;7.28;3.03;;;4.10;99.90;;;;;;5062713;28;20094;-75
2024/02/24 06:41:06;;;;;;;9.85;3.92;;;4.10;99.90;;;;;;5064440;28;20180;-74
2024/02/24 06:43:31;;;;;;;6.53;3.15;;;4.20;99.90;;;;;;5065459;28;20493;-76
2024/02/24 06:45:58;;;;;;;7.22;3.40;;;4.20;99.90;;;;;;5065204;28;20125;-76
2024/02/24 06:48:24;;;;;;;7.13;3.17;;;4.20;99.90;;;;;;5048122;28;20037;-76
2024/02/24 06:50:49;;;;;;;11.93;3.67;;;4.30;99.90;;;;;;5058628;28;20486;-76
2024/02/24 06:53:15;;;;;;;7.95;2.88;;;4.30;99.90;;;;;;5045277;28;20490;-75
2024/02/24 06:55:41;;;;;;;9.02;3.38;;;4.40;99.90;;;;;;5065233;28;20382;-75
2024/02/24 06:58:07;;;;;;;11.07;3.97;;;4.40;99.90;;;;;;5069182;28;20024;-76
2024/02/24 07:00:32;;;;;;;5.82;3.17;;;4.40;99.90;;;;;;5045196;28;20032;-75
2024/02/24 07:02:58;;;;;;;7.15;3.63;;;4.40;99.90;;;;;;5059192;28;20413;-76
2024/02/24 07:05:25;;;;;;;6.50;3.60;;;4.50;99.90;;;;;;5042180;28;20032;-76
2024/02/24 07:07:51;;;;;;;8.68;3.90;;;4.50;99.90;;;;;;5055291;28;20037;-75
2024/02/24 07:10:17;;;;;;;8.15;3.53;;;4.60;99.90;;;;;;5042357;28;20047;-75
2024/02/24 07:12:44;;;;;;;8.68;3.63;;;4.60;99.90;;;;;;5044525;28;20029;-75
2024/02/24 07:15:10;;;;;;;7.57;3.85;;;4.60;99.90;;;;;;5064576;28;20032;-76
2024/02/24 07:17:35;;;;;;;6.60;2.97;;;4.60;99.90;;;;;;5061455;28;20041;-76
2024/02/24 07:20:01;;;;;;;8.38;3.58;;;4.60;99.90;;;;;;5064202;28;20036;-75
2024/02/24 07:22:27;;;;;;;10.88;3.78;;;4.70;99.90;;;;;;5066487;28;20033;-76
2024/02/24 07:24:52;;;;;;;9.80;3.38;;;4.70;99.90;;;;;;5040569;28;20618;-76
2024/02/24 07:27:18;;;;;;;6.68;3.45;;;4.70;99.90;;;;;;5040958;28;20094;-76
2024/02/24 07:29:43;;;;;;;7.65;3.50;;;4.80;99.90;;;;;;5046580;28;20060;-76
2024/02/24 07:32:09;;;;;;;8.80;3.53;;;4.80;99.90;;;;;;5045915;28;20082;-76
2024/02/24 07:34:35;;;;;;;7.35;3.58;;;4.80;99.90;;;;;;5042963;28;20032;-75
2024/02/24 07:37:01;;;;;;;7.28;3.10;;;4.80;99.90;;;;;;5038974;28;20110;-75
2024/02/24 07:39:27;;;;;;;9.18;3.85;;;4.80;99.90;;;;;;5038999;28;20029;-76
2024/02/24 07:41:53;;;;;;;6.55;3.20;;;4.80;99.90;;;;;;5044166;28;20051;-76
2024/02/24 07:44:18;;;;;;;10.73;4.60;;;4.80;99.90;;;;;;5051019;28;20099;-76
2024/02/24 07:46:44;;;;;;;7.22;3.22;;;4.80;99.90;;;;;;5042948;28;20025;-77
2024/02/24 07:49:09;;;;;;;9.85;3.83;;;4.80;99.90;;;;;;5047432;28;20035;-76
2024/02/24 07:51:35;;;;;;;10.10;3.30;;;4.90;99.90;;;;;;5037505;28;20044;-77
2024/02/24 07:54:00;;;;;;;11.70;3.70;;;4.90;99.90;;;;;;5052689;28;20082;-76
2024/02/24 07:56:27;;;;;;;5.25;2.83;;;4.90;99.90;;;;;;5037257;28;20045;-77
2024/02/24 07:58:53;;;;;;;12.38;3.85;;;4.90;99.90;;;;;;5036965;28;20037;-77
2024/02/24 08:01:19;;;;;;;7.32;3.13;;;5.00;99.90;;;;;;5024436;28;20037;-77
2024/02/24 08:03:45;;;;;;;7.65;3.53;;;4.90;99.90;;;;;;5044891;28;20119;-75
2024/02/24 08:06:10;;;;;;;6.95;3.35;;;5.00;99.90;;;;;;5042738;28;20035;-75
2024/02/24 08:08:37;;;;;;;7.07;2.90;;;5.00;99.90;;;;;;5056905;28;20445;-75
2024/02/24 08:11:04;;;;;;;7.07;3.42;;;5.10;99.90;;;;;;5043007;28;20117;-75
2024/02/24 08:13:30;;;;;;;7.63;3.00;;;5.10;99.90;;;;;;5054845;28;20482;-75
2024/02/24 08:15:56;;;;;;;7.78;3.47;;;5.10;99.90;;;;;;5059210;28;20035;-75
2024/02/24 08:18:22;;;;;;;6.70;3.83;;;5.10;99.90;;;;;;5065901;28;20049;-77
2024/02/24 08:20:48;;;;;;;10.32;3.20;;;5.10;99.90;;;;;;5068158;28;20127;-76
2024/02/24 08:23:14;;;;;;;5.45;3.33;;;5.20;99.90;;;;;;5069118;28;20162;-75
2024/02/24 08:25:40;;;;;;;8.05;3.83;;;5.20;99.90;;;;;;5069037;28;20081;-75
2024/02/24 08:28:05;;;;;;;7.85;3.65;;;5.20;99.90;;;;;;5051315;28;20036;-76
2024/02/24 08:30:31;;;;;;;5.97;3.38;;;5.20;99.90;;;;;;5054331;28;20529;-75
2024/02/24 08:32:56;;;;;;;6.10;3.25;;;5.30;99.90;;;;;;5063291;28;20052;-75
2024/02/24 08:35:22;;;;;;;7.60;3.75;;;5.40;99.90;;;;;;5066173;28;20139;-75
2024/02/24 08:37:47;;;;;;;7.20;3.30;;;5.40;99.90;;;;;;5069228;28;20044;-77
2024/02/24 08:40:13;;;;;;;9.02;4.60;;;5.40;99.90;;;;;;5046952;28;20024;-75
2024/02/24 08:42:39;;;;;;;7.07;3.50;;;5.50;99.90;;;;;;5063278;28;20404;-76
2024/02/24 08:45:05;;;;;;;5.82;3.33;;;5.50;99.90;;;;;;5051506;28;20032;-77
2024/02/24 08:47:31;;;;;;;6.68;3.65;;;5.60;99.90;;;;;;5068949;28;20044;-76
2024/02/24 08:49:56;;;;;;;10.73;3.78;;;5.60;99.90;;;;;;5052635;28;20602;-75
2024/02/24 08:52:22;;;;;;;9.23;3.67;;;5.80;99.90;;;;;;5051246;28;20146;-75
2024/02/24 08:54:48;;;;;;;8.25;3.30;;;5.80;99.90;;;;;;5047785;28;20048;-76
2024/02/24 08:57:13;;;;;;;6.43;3.63;;;5.90;99.90;;;;;;5047580;28;20097;-76
2024/02/24 08:59:39;;;;;;;7.13;3.63;;;6.00;99.90;;;;;;5065165;28;20090;-76
2024/02/24 09:02:05;;;;;;;6.25;3.25;;;6.10;99.90;;;;;;5069355;28;20028;-77
2024/02/24 09:04:30;;;;;;;6.03;3.22;;;6.10;99.90;;;;;;5050094;28;20555;-75
2024/02/24 09:06:56;;;;;;;6.60;3.03;;;6.10;99.90;;;;;;5050633;28;20059;-74
2024/02/24 09:09:21;;;;;;;8.27;3.40;;;6.20;99.90;;;;;;5069964;28;20125;-76
2024/02/24 09:11:48;;;;;;;7.25;3.83;;;6.20;99.90;;;;;;5051258;28;20048;-76
2024/02/24 09:14:13;;;;;;;7.32;3.55;;;6.30;99.90;;;;;;5069186;28;20032;-76
2024/02/24 09:16:39;;;;;;;11.75;4.05;;;6.30;99.90;;;;;;5059026;28;20033;-77
2024/02/24 09:19:05;;;;;;;7.90;3.00;;;6.40;99.90;;;;;;5068779;28;20027;-77
2024/02/24 09:21:30;;;;;;;6.22;3.10;;;6.50;99.90;;;;;;5066677;28;20486;-73
2024/02/24 09:23:56;;;;;;;7.85;3.42;;;6.50;99.90;;;;;;5069207;28;20773;-75
2024/02/24 09:26:23;;;;;;;7.80;3.28;;;6.50;99.90;;;;;;5069085;28;20044;-76
2024/02/24 09:28:48;;;;;;;8.68;3.90;;;6.50;99.90;;;;;;5068484;28;20040;-75
2024/02/24 09:31:14;;;;;;;8.23;3.25;;;6.50;99.90;;;;;;5053746;28;20123;-74
2024/02/24 09:33:39;;;;;;;6.60;3.85;;;6.50;99.90;;;;;;5066276;28;20108;-74
2024/02/24 09:36:06;;;;;;;9.75;3.95;;;6.40;99.90;;;;;;5069675;28;20109;-76
2024/02/24 09:38:32;;;;;;;8.98;3.83;;;6.40;99.90;;;;;;5049149;28;20567;-74
2024/02/24 09:40:57;;;;;;;10.85;3.60;;;6.30;99.90;;;;;;5045818;28;20052;-75
2024/02/24 09:43:23;;;;;;;9.10;3.75;;;6.20;99.90;;;;;;5062125;28;20093;-78
2024/02/24 09:45:48;;;;;;;8.20;4.03;;;6.20;99.90;;;;;;5067300;28;20489;-77
2024/02/24 09:48:15;;;;;;;8.48;3.80;;;6.10;99.90;;;;;;5050245;28;20456;-74
2024/02/24 09:50:41;;;;;;;8.13;3.95;;;6.10;99.90;;;;;;5049683;28;20029;-73
2024/02/24 09:53:07;;;;;;;6.50;3.78;;;6.10;99.90;;;;;;5064084;28;20052;-72
2024/02/24 09:55:34;;;;;;;10.55;3.88;;;6.10;99.90;;;;;;5049200;28;20040;-74
2024/02/24 09:58:01;;;;;;;8.00;3.70;;;6.00;99.90;;;;;;5062865;28;20119;-74
2024/02/24 10:00:27;;;;;;;6.72;3.30;;;6.00;99.90;;;;;;5060484;28;20032;-74
2024/02/24 10:02:52;;;;;;;8.82;3.60;;;6.00;99.90;;;;;;5065769;28;20098;-74
2024/02/24 10:05:18;;;;;;;8.98;3.60;;;5.90;99.90;;;;;;5049461;28;20033;-73
2024/02/24 10:07:45;;;;;;;7.50;3.45;;;5.90;99.90;;;;;;5049580;28;20129;-75
2024/02/24 10:10:13;;;;;;;10.00;3.83;;;5.90;99.90;;;;;;5050150;28;20064;-74
2024/02/24 10:12:39;;;;;;;7.03;3.30;;;5.90;99.90;;;;;;5042536;28;20044;-73
2024/02/24 10:15:05;;;;;;;10.98;4.50;;;5.90;99.90;;;;;;5045617;28;20033;-77
2024/02/24 10:17:31;;;;;;;8.73;3.45;;;5.90;99.90;;;;;;5041597;28;20033;-75
2024/02/24 10:19:57;;;;;;;7.45;3.38;;;5.90;99.90;;;;;;5039055;28;20197;-73
2024/02/24 10:22:22;;;;;;;7.55;3.65;;;6.00;99.90;;;;;;5028038;28;20038;-74
2024/02/24 10:24:48;;;;;;;6.07;3.25;;;5.90;99.90;;;;;;5044125;28;20047;-74
2024/02/24 10:27:17;;;;;;;6.00;3.22;;;5.90;99.90;;;;;;5042474;28;20041;-74
2024/02/24 10:29:48;;;;;;;6.25;3.17;;;5.90;99.90;;;;;;5045404;28;20056;-74
2024/02/24 10:32:14;;;;;;;7.97;2.85;;;6.00;99.90;;;;;;5043481;28;20067;-72
2024/02/24 10:34:40;;;;;;;5.85;2.83;;;5.90;99.90;;;;;;5039765;28;20482;-72
2024/02/24 10:37:07;;;;;;;5.38;3.40;;;5.90;99.90;;;;;;5035002;28;20029;-73
2024/02/24 10:39:35;;;;;;;4.53;2.63;;;5.90;99.90;;;;;;5029244;28;20048;-74
2024/02/24 10:42:04;;;;;;;3.60;2.08;;;6.00;99.90;;;;;;5040263;28;20098;-74
2024/02/24 10:44:33;;;;;;;6.23;2.83;;;6.00;99.90;;;;;;5038761;28;20028;-73
2024/02/24 10:46:59;;;;;;;3.00;1.85;;;6.00;99.90;;;;;;5022128;28;20275;-73
2024/02/24 10:49:25;;;;;;;4.63;2.00;;;5.90;99.90;;;;;;5023996;28;20061;-73
2024/02/24 10:51:50;;;;;;;5.30;2.10;;;6.00;99.90;;;;;;5035845;28;20044;-74
2024/02/24 10:54:22;;;;;;;3.45;1.67;;;6.00;99.90;;;;;;5041204;28;20025;-74
2024/02/24 10:56:55;;;;;;;4.47;2.25;;;6.00;99.90;;;;;;5022209;28;20055;-74
2024/02/24 10:59:28;;;;;;;4.75;1.85;;;6.00;99.90;;;;;;5039941;28;20075;-74
2024/02/24 11:02:01;;;;;;;4.50;1.92;;;6.00;99.90;;;;;;5046105;28;20040;-74
2024/02/24 11:04:27;;;;;;;3.83;1.52;;;6.10;99.90;;;;;;5043562;28;20033;-73
2024/02/24 11:06:55;;;;;;;5.53;1.77;;;6.10;99.90;;;;;;5042286;28;20048;-73
2024/02/24 11:09:39;;;;;;;5.18;2.05;;;6.20;99.90;;;;;;5033212;28;20824;-74
2024/02/24 11:12:07;;;;;;;2.30;1.38;;;6.30;99.90;;;;;;5040006;28;20033;-74
2024/02/24 11:14:38;;;;;;;4.25;1.30;;;6.40;99.90;;;;;;5040403;28;21557;-73
2024/02/24 11:17:04;;;;;;;20.17;2.35;;;6.50;99.90;;;;;;5043519;28;20135;-74
2024/02/24 11:19:50;;;;;;;5.75;1.13;;;6.60;99.90;;;;;;5040519;28;20040;-74
2024/02/24 11:22:24;;;;;;;2.65;0.90;;;6.60;99.90;;;;;;5035041;28;20141;-72
2024/02/24 11:25:05;;;;;;;4.35;1.90;;;6.70;99.90;;;;;;5031254;28;20498;-73
2024/02/24 11:27:37;;;;;;;2.30;0.85;;;6.60;99.90;;;;;;5031797;28;20402;-74
2024/02/24 11:30:44;;;;;;;2.33;1.08;;;6.70;99.90;;;;;;5036538;28;20057;-73
2024/02/24 11:33:39;;;;;;;1.65;0.63;;;6.70;99.90;;;;;;5030731;28;20033;-74
2024/02/24 11:36:06;;;;;;;6.47;1.27;;;6.70;99.90;;;;;;5018800;28;20037;-73
2024/02/24 11:38:32;;;;;;;2.08;0.93;;;6.70;99.90;;;;;;5041009;28;20029;-73
2024/02/24 11:41:05;;;;;;;2.03;0.80;;;6.70;99.90;;;;;;5049439;28;20021;-77
2024/02/24 11:43:32;;;;;;;2.17;1.02;;;6.60;99.90;;;;;;5049366;28;20029;-74
2024/02/24 11:45:59;;;;;;;8.57;1.17;;;6.50;99.90;;;;;;5057048;28;20040;-75
2024/02/24 11:48:24;;;;;;;4.28;0.88;;;6.40;99.90;;;;;;5042667;28;20043;-74
2024/02/24 11:50:51;;;;;;;2.30;0.60;;;6.30;99.90;;;;;;5040895;28;20033;-74
2024/02/24 11:53:17;;;;;;;2.88;0.90;;;6.20;99.90;;;;;;5036741;28;20116;-74
2024/02/24 11:55:47;;;;;;;1.85;0.70;;;6.20;99.90;;;;;;5040198;28;20029;-74
2024/02/24 11:58:17;;;;;;;1.38;0.80;;;6.10;99.90;;;;;;5039068;28;20095;-74
2024/02/24 12:00:43;;;;;;;1.25;0.77;;;6.10;99.90;;;;;;5037252;28;20029;-74
2024/02/24 12:03:14;;;;;;;3.67;1.55;;;6.10;99.90;;;;;;5039100;28;20110;-76
2024/02/24 12:05:39;;;;;;;5.18;1.70;;;6.10;99.90;;;;;;5043109;28;20037;-75
2024/02/24 12:08:09;;;;;;;3.38;1.23;;;6.10;99.90;;;;;;5045469;28;20041;-75
2024/02/24 12:10:36;;;;;;;5.28;1.77;;;6.00;99.90;;;;;;5026246;28;20148;-73
2024/02/24 12:13:13;;;;;;;2.42;1.42;;;6.00;99.90;;;;;;5045321;28;20028;-74
2024/02/24 12:15:40;;;;;;;6.70;1.55;;;6.00;99.90;;;;;;5039841;28;20135;-74
2024/02/24 12:18:06;;;;;;;3.70;1.48;;;6.00;99.90;;;;;;5056675;28;20405;-73
2024/02/24 12:20:36;;;;;;;14.60;2.10;;;6.10;99.90;;;;;;5059633;28;20402;-73
2024/02/24 12:23:09;;;;;;;4.13;1.35;;;6.10;99.90;;;;;;5065062;28;20025;-74
2024/02/24 12:25:35;;;;;;;3.45;1.08;;;6.20;99.90;;;;;;5059552;28;20035;-75
2024/02/24 12:28:04;;;;;;;3.60;1.40;;;6.20;99.90;;;;;;5038120;28;20066;-73
2024/02/24 12:30:35;;;;;;;3.47;1.30;;;6.20;99.90;;;;;;5057165;28;20093;-74
2024/02/24 12:33:02;;;;;;;4.68;1.27;;;6.30;99.90;;;;;;5054154;28;20037;-74
2024/02/24 12:35:29;;;;;;;3.72;1.13;;;6.40;99.90;;;;;;5056123;28;20047;-72
2024/02/24 12:37:55;;;;;;;4.93;1.30;;;6.40;99.90;;;;;;5056143;28;20505;-74
2024/02/24 12:40:34;;;;;;;5.85;1.48;;;6.50;99.90;;;;;;5054024;28;20086;-74
2024/02/24 12:43:03;;;;;;;1.92;1.05;;;6.50;99.90;;;;;;5039754;28;20036;-73
2024/02/24 12:45:29;;;;;;;1.30;0.80;;;6.60;99.90;;;;;;5052348;28;20037;-72
2024/02/24 12:47:54;;;;;;;1.98;0.93;;;6.60;99.90;;;;;;5052382;28;20100;-74
2024/02/24 12:50:25;;;;;;;2.03;0.88;;;6.60;99.90;;;;;;5056611;28;20049;-74
2024/02/24 12:52:52;;;;;;;2.47;0.85;;;6.60;99.90;;;;;;5046107;28;20067;-73